Airfield :
LOGIN :

Register | Disclaimer

   EN    FR    IT 

 










Legend :    VFR   Marginal VFR   IFR   Intensive IFR   Very Intensive IFR
Visi :
Ceiling :
>= 8 km
>= 3000ft
5 to 8 km
1000 to 3000 ft
1500m to 5 km
500 to 1000 ft
800 to 1500m
200 to 500 ft
< 800m
< 200 ft
Symbols :   Thunderstorms  Fog  Heavy snow  Heavy precipitations  Wind > 20 kt
SIGMETs :     Misc.  Thunderstorms  Icing  Turbulence  Mountain Waves  Volcanic Ashes







- Airport Elevation : 74 ft
- IATA code : MRS
- Download approach charts


LFML - Marseille / Marignane

CURRENT METAR :
  • 200730Z AUTO 04006KT 310V110 CAVOK 24/12 Q1013 NOSIG

EXPIRED METARs :
  • 200700Z AUTO 06008KT 020V100 CAVOK 23/14 Q1013 BECMG 26010KT
  • 200630Z AUTO 05007KT 020V080 CAVOK 20/15 Q1013 BECMG 26010KT
  • 200600Z AUTO 34006KT 310V010 9999 FEW011 SCT120 BKN140 20/15 Q1014 NOSIG
  • 200530Z AUTO VRB03KT 9999 FEW012 OVC150 19/15 Q1015 NOSIG
  • 200500Z AUTO VRB02KT CAVOK 18/14 Q1014 NOSIG

TAF TAF LFML
Valid from the 20 at 03:00 until the 21 at 09:00 UTC


200200Z 2003/2109 VRB03KT CAVOK TX33/2014Z TN17/2004Z
PROB40
TEMPO 2003/2005 3000 BR BKN005
TEMPO 2005/2008 30010KT SCT013
BECMG 2008/2010 26010KT
BECMG 2019/2021 VRB03KT
ATIS : +33 4 42 31 15 15
No reported NOTAMs for that airfield.
2 SIGMETs reported for the Marseille FIR (LFMM) :
 
SIGMET 2  cancelation
LFMM SIGMET 3 VALID 200705/200800 LFPW
LFMM MARSEILLE FIR/UIR CNL SIGMET 2 200600/200800=
SIGMET 2  CANCELED :
Embedded thunderstorms
LFMM SIGMET 2 VALID 200600/200800 LFPW
LFMM MARSEILLE FIR/UIR EMBD TS OBS WI N4500 E00445 - N4615 E00600 - N4600 E00645 - N4430 E00530 - N4500 E00445 TOP FL320 MOV NE 20KT NC=



MET'MAP, your aeronautical weather chart ! - Copyright ORBIFLY December 2007 - Disclaimer

ORBIFLY MET'MAP TEAM :

Programming & Development : Alexandra Zaïnal
Concept & Development : Baudouin d'Aumeries
Co-Development & Prog : Marc-Olivier Méhu
Technical & hardware support : Manuel Goepfert

Contact : metmap@orbifly.com




SOURCES & CREDITS :

   NOAA